Date,TemperatureHighF,TemperatureAvgF,TemperatureLowF,DewpointHighF,DewpointAvgF,DewpointLowF,HumidityHigh,HumidityAvg,HumidityLow,PressureMaxIn,PressureMinIn,WindSpeedMaxMPH,WindSpeedAvgMPH,GustSpeedMaxMPH,PrecipitationSumIn
2013-6-1,82.6,77.8,73.8,73.9,72.1,71.0,92,83,69,30.17,30.03,6,3,16,0.00
2013-6-2,82.9,78.3,75.3,73.8,72.6,71.0,91,83,70,30.17,29.94,7,4,19,0.00
2013-6-3,83.7,73.5,70.3,75.9,71.6,61.1,98,94,70,30.30,29.88,13,4,20,0.45
2013-6-4,85.0,75.4,67.1,76.5,70.4,64.8,98,86,59,30.10,29.91,8,1,15,0.01
2013-6-5,83.5,73.2,64.3,68.5,64.5,61.0,94,76,50,30.13,30.04,12,2,14,0.00
2013-6-6,82.0,74.6,67.2,73.5,70.4,64.0,97,87,71,30.07,29.88,12,3,17,0.13
2013-6-7,82.3,76.8,73.4,77.5,74.3,72.4,98,92,84,29.90,29.61,21,7,39,1.40
2013-6-8,82.9,78.6,75.6,78.4,75.4,72.6,95,90,82,30.11,29.88,13,5,25,0.00
2013-6-9,85.4,78.6,74.8,79.6,74.8,69.2,97,89,76,30.17,30.11,10,3,16,0.00
2013-6-10,82.8,79.0,74.9,77.0,75.2,72.1,95,88,80,30.16,30.00,14,6,25,0.00
2013-6-11,84.3,78.9,74.1,76.6,74.4,71.3,96,86,74,30.02,29.88,14,4,21,0.06
2013-6-12,87.4,80.3,71.2,77.3,73.7,70.1,98,82,59,29.98,29.89,9,2,14,0.00
2013-6-13,87.1,81.3,70.0,80.6,77.0,67.0,97,87,63,29.90,29.64,30,5,36,0.14
2013-6-14,80.5,73.1,62.4,69.6,63.5,56.8,97,74,50,30.01,29.67,17,6,22,0.23
2013-6-15,85.0,72.6,58.7,64.6,60.9,56.4,98,69,44,30.12,30.01,10,2,14,0.00
2013-6-16,84.4,77.7,71.6,71.5,68.1,64.4,88,73,55,30.16,30.06,11,3,20,0.00
2013-6-17,83.0,78.2,74.4,74.8,71.0,67.5,86,79,73,30.08,30.00,11,4,21,0.00
2013-6-18,85.0,78.8,73.1,78.0,75.1,70.8,97,89,75,30.01,29.81,10,4,21,0.09
2013-6-19,78.8,73.0,68.0,75.2,70.4,65.3,98,92,79,30.10,29.83,19,2,23,0.58
2013-6-20,84.3,74.5,67.4,72.4,66.3,57.4,97,78,42,30.21,30.08,8,2,12,0.00
2013-6-21,79.7,71.6,67.7,74.0,69.3,65.1,96,93,82,30.21,30.15,6,2,12,0.00
2013-6-24,85.4,80.1,76.0,77.9,76.0,72.9,92,87,78,30.25,30.12,12,4,18,0.01
2013-6-25,86.3,79.9,75.4,78.9,75.9,71.7,94,88,76,30.17,30.02,9,2,16,0.00
2013-6-26,85.6,80.6,77.1,78.3,76.2,73.9,95,87,76,30.07,29.95,12,3,22,0.00
2013-6-27,85.1,80.2,75.3,79.6,76.2,70.9,95,88,75,29.96,29.79,15,5,26,0.05
2013-6-28,85.8,81.1,76.3,80.8,77.9,72.6,95,90,83,29.83,29.66,11,5,22,0.03
2013-6-29,83.9,80.3,78.2,78.6,76.2,74.0,94,88,79,29.81,29.66,14,7,29,0.00
2013-6-30,80.7,77.7,72.8,77.5,75.0,71.6,98,92,83,29.94,29.79,14,5,23,0.54